Time;durP1;ratioP1;P1;durP2;ratioP2;P2;SDS_P1;SDS_P2;PMS_P1;PMS_P2;Temp;Humidity;BMP_temperature;BMP_pressure;BME280_temperature;BME280_humidity;BME280_pressure;Samples;Min_cycle;Max_cycle;Signal;HPM_P1;HPM_P2
2023/05/27 00:01:57;;;;;;;;;;;;;;;19.28;66.51;99546.16;5093379;28;19923;-41
2023/05/27 00:04:23;;;;;;;;;;;;;;;19.48;65.23;99540.00;5093106;28;20403;-41
2023/05/27 00:06:48;;;;;;;;;;;;;;;19.43;65.64;99526.50;5093115;28;19924;-41
2023/05/27 00:09:13;;;;;;;;;;;;;;;19.50;65.35;99532.44;5093161;28;19920;-41
2023/05/27 00:11:39;;;;;;;;;;;;;;;19.33;65.45;99529.19;5093152;28;20299;-41
2023/05/27 00:14:04;;;;;;;;;;;;;;;19.25;65.60;99529.72;5092529;28;19977;-41
2023/05/27 00:16:31;;;;;;;;;;;;;;;19.38;64.79;99537.31;5092785;28;19916;-41
2023/05/27 00:18:56;;;;;;;;;;;;;;;19.60;63.81;99528.94;5093155;28;19919;-41
2023/05/27 00:21:22;;;;;;;;;;;;;;;19.27;64.69;99532.97;5092911;28;20084;-41
2023/05/27 00:23:47;;;;;;;;;;;;;;;19.23;64.96;99526.44;5092806;28;20370;-41
2023/05/27 00:26:12;;;;;;;;;;;;;;;18.98;65.45;99527.97;5092965;28;19935;-41
2023/05/27 00:28:38;;;;;;;;;;;;;;;18.84;66.18;99524.97;5092708;28;20037;-41
2023/05/27 00:31:03;;;;;;;;;;;;;;;18.79;66.12;99522.25;5092719;28;19938;-41
2023/05/27 00:33:28;;;;;;;;;;;;;;;18.53;67.89;99510.53;5092574;28;19912;-41
2023/05/27 00:35:54;;;;;;;;;;;;;;;18.53;67.29;99508.63;5092438;28;20040;-41
2023/05/27 00:38:19;;;;;;;;;;;;;;;19.03;65.90;99502.94;5092345;28;19919;-41
2023/05/27 00:40:45;;;;;;;;;;;;;;;19.26;64.35;99493.56;5092546;28;19912;-41
2023/05/27 00:43:10;;;;;;;;;;;;;;;19.02;65.02;99496.75;5092271;28;19916;-41
2023/05/27 00:45:36;;;;;;;;;;;;;;;18.94;65.55;99489.97;5092562;28;19913;-41
2023/05/27 00:48:02;;;;;;;;;;;;;;;19.32;64.48;99492.47;5092243;28;19995;-41
2023/05/27 00:50:28;;;;;;;;;;;;;;;19.21;64.73;99493.53;5092403;28;19912;-41
2023/05/27 00:52:55;;;;;;;;;;;;;;;19.40;64.25;99496.53;5092472;28;19912;-41
2023/05/27 00:55:21;;;;;;;;;;;;;;;19.33;64.59;99489.53;5092431;28;20006;-41
2023/05/27 00:57:47;;;;;;;;;;;;;;;19.02;65.38;99499.44;5092162;28;20383;-41
2023/05/27 01:00:13;;;;;;;;;;;;;;;18.81;65.83;99503.13;5092134;28;19922;-42
2023/05/27 01:02:40;;;;;;;;;;;;;;;18.71;66.25;99493.88;5092050;28;19914;-39
2023/05/27 01:05:06;;;;;;;;;;;;;;;18.82;66.05;99489.38;5091954;28;19973;-40
2023/05/27 01:07:32;;;;;;;;;;;;;;;18.81;65.85;99487.78;5092179;28;19912;-41
2023/05/27 01:09:57;;;;;;;;;;;;;;;19.05;64.90;99490.00;5092041;28;20316;-40
2023/05/27 01:12:25;;;;;;;;;;;;;;;18.98;64.92;99495.63;5091693;28;19938;-41
2023/05/27 01:14:51;;;;;;;;;;;;;;;19.17;64.13;99503.25;5091853;28;20370;-42
2023/05/27 01:17:17;;;;;;;;;;;;;;;19.05;64.13;99496.19;5091803;28;20331;-41
2023/05/27 01:19:47;;;;;;;;;;;;;;;19.01;64.10;99503.19;5091674;28;20272;-42
2023/05/27 01:22:13;;;;;;;;;;;;;;;19.30;63.20;99498.13;5091758;28;19981;-42
2023/05/27 01:24:41;;;;;;;;;;;;;;;18.77;64.66;99502.81;5090950;28;19912;-41
2023/05/27 01:27:08;;;;;;;;;;;;;;;19.00;64.47;99504.28;5091868;28;19920;-42
2023/05/27 01:29:33;;;;;;;;;;;;;;;19.16;63.64;99498.94;5091490;28;20037;-42
2023/05/27 01:32:21;;;;;;;;;;;;;;;19.02;63.66;99493.22;5091854;28;19916;-42
2023/05/27 01:34:55;;;;;;;;;;;;;;;19.14;63.12;99485.72;5091601;28;19916;-42
2023/05/27 01:37:23;;;;;;;;;;;;;;;19.51;62.15;99484.69;5091296;28;19943;-42
2023/05/27 01:39:50;;;;;;;;;;;;;;;19.62;61.37;99489.00;5091169;28;19945;-42
2023/05/27 01:42:15;;;;;;;;;;;;;;;19.41;62.37;99487.38;5091229;28;19912;-42
2023/05/27 01:44:41;;;;;;;;;;;;;;;19.08;63.87;99494.88;5091203;28;19973;-40
2023/05/27 01:47:06;;;;;;;;;;;;;;;18.87;63.73;99475.13;5091158;28;19937;-40
2023/05/27 01:49:32;;;;;;;;;;;;;;;19.29;62.76;99485.75;5091160;28;19912;-40
2023/05/27 01:51:57;;;;;;;;;;;;;;;19.70;61.18;99483.09;5091126;28;19912;-40
2023/05/27 01:54:22;;;;;;;;;;;;;;;19.70;61.20;99483.09;5091086;28;19922;-40
2023/05/27 01:56:48;;;;;;;;;;;;;;;19.80;60.72;99478.78;5091275;28;19964;-41
2023/05/27 01:59:13;;;;;;;;;;;;;;;19.69;60.84;99481.47;5090808;28;19961;-40
2023/05/27 02:01:39;;;;;;;;;;;;;;;19.65;61.45;99474.19;5091307;28;19999;-42
2023/05/27 02:04:04;;;;;;;;;;;;;;;20.04;60.28;99476.34;5089762;28;19916;-43
2023/05/27 02:06:30;;;;;;;;;;;;;;;20.21;59.47;99482.25;5091133;28;20407;-42
2023/05/27 02:08:55;;;;;;;;;;;;;;;19.89;60.56;99475.25;5090973;28;19912;-41
2023/05/27 02:11:20;;;;;;;;;;;;;;;19.88;60.31;99472.84;5091164;28;19918;-41
2023/05/27 02:13:45;;;;;;;;;;;;;;;19.99;60.73;99466.38;5091094;28;19923;-43
2023/05/27 02:16:12;;;;;;;;;;;;;;;20.33;59.50;99464.94;5090894;28;19912;-41
2023/05/27 02:18:37;;;;;;;;;;;;;;;19.90;60.41;99466.09;5091075;28;19994;-42
2023/05/27 02:21:05;;;;;;;;;;;;;;;19.50;61.65;99475.78;5091054;28;19955;-42
2023/05/27 02:23:31;;;;;;;;;;;;;;;19.73;60.87;99473.66;5090773;28;19912;-42
2023/05/27 02:25:56;;;;;;;;;;;;;;;19.73;61.03;99462.88;5091043;28;20015;-42
2023/05/27 02:28:22;;;;;;;;;;;;;;;20.16;60.01;99476.03;5090812;28;19922;-42
2023/05/27 02:30:47;;;;;;;;;;;;;;;19.76;61.46;99456.91;5090945;28;19916;-41
2023/05/27 02:33:12;;;;;;;;;;;;;;;19.64;62.00;99450.97;5090740;28;20383;-42
2023/05/27 02:35:38;;;;;;;;;;;;;;;19.21;63.14;99464.69;5091868;28;19973;-42
2023/05/27 02:38:03;;;;;;;;;;;;;;;19.28;62.85;99461.72;5097597;28;20003;-42
2023/05/27 02:40:29;;;;;;;;;;;;;;;19.25;63.21;99467.69;5097506;28;19969;-42
2023/05/27 02:42:57;;;;;;;;;;;;;;;19.49;62.00;99468.75;5097604;28;20371;-42
2023/05/27 02:45:23;;;;;;;;;;;;;;;19.65;61.71;99476.88;5097476;28;19927;-42
2023/05/27 02:47:49;;;;;;;;;;;;;;;19.25;62.47;99468.47;5097418;28;20319;-42
2023/05/27 02:50:14;;;;;;;;;;;;;;;19.47;62.21;99479.00;5097363;28;19912;-42
2023/05/27 02:52:39;;;;;;;;;;;;;;;19.40;62.48;99473.09;5097501;28;20015;-41
2023/05/27 02:55:05;;;;;;;;;;;;;;;19.37;62.37;99486.31;5096915;28;19923;-41
2023/05/27 02:57:31;;;;;;;;;;;;;;;19.47;61.93;99481.72;5097328;28;20311;-42
2023/05/27 02:59:56;;;;;;;;;;;;;;;19.79;60.70;99479.88;5097444;28;19952;-42
2023/05/27 03:02:21;;;;;;;;;;;;;;;19.57;61.13;99482.78;5097358;28;20289;-41
2023/05/27 03:04:47;;;;;;;;;;;;;;;19.89;60.78;99475.25;5097252;28;19912;-41
2023/05/27 03:07:13;;;;;;;;;;;;;;;19.91;60.48;99478.53;5097151;28;19923;-42
2023/05/27 03:09:38;;;;;;;;;;;;;;;19.77;61.02;99488.25;5097423;28;19912;-42
2023/05/27 03:12:03;;;;;;;;;;;;;;;20.02;59.94;99489.31;5097278;28;19912;-40
2023/05/27 03:14:29;;;;;;;;;;;;;;;20.23;58.81;99495.47;5097286;28;20295;-40
2023/05/27 03:16:55;;;;;;;;;;;;;;;20.24;58.84;99489.81;5097025;28;19912;-40
2023/05/27 03:19:20;;;;;;;;;;;;;;;20.31;58.48;99489.50;5097125;28;19912;-40
2023/05/27 03:21:46;;;;;;;;;;;;;;;20.22;58.58;99489.28;5096849;28;20395;-40
2023/05/27 03:24:11;;;;;;;;;;;;;;;20.41;58.63;99494.06;5096844;28;19919;-41
2023/05/27 03:26:36;;;;;;;;;;;;;;;20.45;58.13;99489.75;5096925;28;19919;-41
2023/05/27 03:29:01;;;;;;;;;;;;;;;20.80;57.05;99494.25;5096697;28;19920;-40
2023/05/27 03:31:27;;;;;;;;;;;;;;;20.76;56.80;99490.47;5097038;28;19916;-41
2023/05/27 03:33:52;;;;;;;;;;;;;;;20.72;56.84;99486.72;5096303;28;20022;-41
2023/05/27 03:36:17;;;;;;;;;;;;;;;20.70;56.54;99494.31;5097473;28;19912;-41
2023/05/27 03:38:43;;;;;;;;;;;;;;;20.94;56.58;99493.66;5096822;28;19962;-40
2023/05/27 03:41:08;;;;;;;;;;;;;;;20.89;56.48;99497.19;5096587;28;20044;-41
2023/05/27 03:43:34;;;;;;;;;;;;;;;20.88;56.19;99501.78;5097036;28;19912;-41
2023/05/27 03:45:59;;;;;;;;;;;;;;;20.49;56.83;99499.75;5096560;28;20343;-41
2023/05/27 03:48:25;;;;;;;;;;;;;;;20.62;57.17;99501.09;5094056;28;19943;-41
2023/05/27 03:50:50;;;;;;;;;;;;;;;20.88;56.17;99499.06;5093601;28;20320;-41
2023/05/27 03:53:15;;;;;;;;;;;;;;;20.37;57.56;99501.94;5093393;28;20004;-41
2023/05/27 03:55:40;;;;;;;;;;;;;;;20.62;57.24;99506.50;5093397;28;19962;-41
2023/05/27 03:58:06;;;;;;;;;;;;;;;20.33;57.93;99505.44;5094058;28;19954;-41
2023/05/27 04:00:31;;;;;;;;;;;;;;;20.61;57.17;99504.06;5093405;28;20306;-41
2023/05/27 04:02:57;;;;;;;;;;;;;;;20.35;58.05;99509.50;5093239;28;19912;-41
2023/05/27 04:05:22;;;;;;;;;;;;;;;20.60;57.23;99513.25;5093434;28;19912;-41
2023/05/27 04:07:48;;;;;;;;;;;;;;;20.62;57.27;99521.88;5093008;28;20396;-41
2023/05/27 04:10:13;;;;;;;;;;;;;;;20.43;57.67;99521.66;5093448;28;19916;-41
2023/05/27 04:12:39;;;;;;;;;;;;;;;20.15;58.12;99518.47;5093046;28;19935;-41
2023/05/27 04:15:04;;;;;;;;;;;;;;;20.56;57.65;99526.50;5093035;28;19927;-41
2023/05/27 04:17:30;;;;;;;;;;;;;;;20.53;57.77;99518.91;5093281;28;19969;-41
2023/05/27 04:19:56;;;;;;;;;;;;;;;20.50;57.87;99516.75;5092843;28;19969;-41
2023/05/27 04:22:21;;;;;;;;;;;;;;;20.88;56.54;99518.00;5093102;28;19916;-41
2023/05/27 04:24:48;;;;;;;;;;;;;;;20.74;57.16;99527.00;5093169;28;19969;-41
2023/05/27 04:27:16;;;;;;;;;;;;;;;20.81;56.56;99522.09;5093076;28;20356;-41
2023/05/27 04:29:43;;;;;;;;;;;;;;;21.04;56.31;99531.47;5092776;28;19920;-40
2023/05/27 04:32:09;;;;;;;;;;;;;;;21.26;55.70;99525.66;5092294;28;20040;-40
2023/05/27 04:34:35;;;;;;;;;;;;;;;21.35;54.96;99524.00;5092810;28;19962;-40
2023/05/27 04:37:00;;;;;;;;;;;;;;;21.12;55.54;99528.19;5093012;28;20378;-40
2023/05/27 04:39:26;;;;;;;;;;;;;;;21.04;56.14;99531.47;5092718;28;19976;-40
2023/05/27 04:41:51;;;;;;;;;;;;;;;21.02;56.93;99528.25;5092780;28;20051;-41
2023/05/27 04:44:17;;;;;;;;;;;;;;;21.22;55.73;99532.72;5092557;28;19912;-40
2023/05/27 04:46:43;;;;;;;;;;;;;;;21.39;55.54;99533.16;5092597;28;20006;-40
2023/05/27 04:49:09;;;;;;;;;;;;;;;21.65;54.72;99533.03;5078180;28;20067;-41
2023/05/27 04:51:35;;;;;;;;;;;;;;;22.18;53.29;99538.56;5072059;28;19965;-40
2023/05/27 04:54:01;;;;;;;;;;;;;;;22.70;52.43;99536.16;5092786;28;19964;-40
2023/05/27 04:56:26;;;;;;;;;;;;;;;22.86;51.86;99535.97;5092721;28;19912;-41
2023/05/27 04:58:52;;;;;;;;;;;;;;;23.41;51.03;99548.00;5092045;28;20006;-40
2023/05/27 05:01:17;;;;;;;;;;;;;;;23.95;49.64;99543.16;5092065;28;19912;-41
2023/05/27 05:04:02;;;;;;;;;;;;;;;24.05;49.19;99547.63;5092029;28;20008;-40
2023/05/27 05:06:27;;;;;;;;;;;;;;;24.11;48.66;99545.63;5089513;28;19926;-40
2023/05/27 05:08:53;;;;;;;;;;;;;;;23.83;49.59;99550.16;5092493;28;19916;-40
2023/05/27 05:11:18;;;;;;;;;;;;;;;24.36;48.37;99537.00;5092485;28;20411;-41
2023/05/27 05:13:43;;;;;;;;;;;;;;;24.44;48.48;99545.56;5092180;28;19968;-41
2023/05/27 05:16:09;;;;;;;;;;;;;;;24.14;49.65;99545.00;5091934;28;19912;-41
2023/05/27 05:18:34;;;;;;;;;;;;;;;24.84;47.42;99543.19;5091807;28;20376;-40
2023/05/27 05:20:59;;;;;;;;;;;;;;;25.18;47.29;99537.31;5089245;28;19916;-37
2023/05/27 05:23:24;;;;;;;;;;;;;;;25.45;47.10;99549.25;5092080;28;19973;-37
2023/05/27 05:25:55;;;;;;;;;;;;;;;25.14;46.18;99545.28;5092165;28;19912;-37
2023/05/27 05:28:20;;;;;;;;;;;;;;;24.93;46.93;99550.34;5091194;28;19916;-37
2023/05/27 05:30:46;;;;;;;;;;;;;;;24.48;47.85;99546.56;5080673;28;19922;-35
2023/05/27 05:33:11;;;;;;;;;;;;;;;24.59;46.76;99554.25;5071988;28;19913;-36
2023/05/27 05:35:36;;;;;;;;;;;;;;;24.79;46.50;99552.28;5090893;28;20288;-36
2023/05/27 05:38:02;;;;;;;;;;;;;;;24.57;46.90;99556.47;5091904;28;19998;-36
2023/05/27 05:40:27;;;;;;;;;;;;;;;24.76;46.96;99550.16;5091891;28;20057;-36
2023/05/27 05:42:52;;;;;;;;;;;;;;;25.61;46.03;99547.81;5091698;28;19912;-36
2023/05/27 05:45:17;;;;;;;;;;;;;;;25.58;44.59;99551.13;5089693;28;19983;-36
2023/05/27 05:47:43;;;;;;;;;;;;;;;25.17;44.66;99543.88;5089356;28;19952;-37
2023/05/27 05:50:08;;;;;;;;;;;;;;;25.46;44.24;99551.69;5090709;28;19916;-36
2023/05/27 05:52:34;;;;;;;;;;;;;;;25.43;44.23;99532.44;5090298;28;20295;-36
2023/05/27 05:54:59;;;;;;;;;;;;;;;25.49;43.59;99529.28;5090265;28;19917;-36
2023/05/27 05:57:24;;;;;;;;;;;;;;;25.22;43.90;99546.47;5090579;28;19920;-36
2023/05/27 05:59:49;;;;;;;;;;;;;;;24.77;44.79;99549.06;5090539;28;19919;-36
2023/05/27 06:02:15;;;;;;;;;;;;;;;24.56;44.96;99554.88;5089526;28;20406;-35
2023/05/27 06:04:40;;;;;;;;;;;;;;;24.65;44.66;99567.78;5090194;28;19960;-36
2023/05/27 06:07:05;;;;;;;;;;;;;;;24.17;45.47;99564.25;5090496;28;19912;-36
2023/05/27 06:09:31;;;;;;;;;;;;;;;24.45;45.13;99563.50;5090125;28;20329;-36
2023/05/27 06:11:56;;;;;;;;;;;;;;;24.39;44.51;99571.75;5090031;28;19916;-36
2023/05/27 06:14:22;;;;;;;;;;;;;;;24.39;45.24;99573.69;5089164;28;20407;-37
2023/05/27 06:16:47;;;;;;;;;;;;;;;24.66;44.48;99567.47;5091108;28;20337;-36
2023/05/27 06:19:13;;;;;;;;;;;;;;;23.71;46.45;99573.13;5086409;28;20388;-36
2023/05/27 06:21:38;;;;;;;;;;;;;;;23.47;47.03;99578.63;5090392;28;19980;-37
2023/05/27 06:24:03;;;;;;;;;;;;;;;23.53;47.19;99584.78;5089683;28;19916;-36
2023/05/27 06:26:29;;;;;;;;;;;;;;;23.50;47.58;99588.91;5090019;28;19912;-36
2023/05/27 06:28:54;;;;;;;;;;;;;;;23.66;47.20;99589.47;5088912;28;19927;-36
2023/05/27 06:31:20;;;;;;;;;;;;;;;23.70;47.78;99587.78;5087982;28;20384;-37
2023/05/27 06:33:45;;;;;;;;;;;;;;;23.27;48.85;99587.06;5090182;28;19997;-37
2023/05/27 06:36:10;;;;;;;;;;;;;;;22.79;50.63;99585.13;5090401;28;19967;-36
2023/05/27 06:38:36;;;;;;;;;;;;;;;23.23;50.43;99592.25;5089010;28;20026;-36
2023/05/27 06:41:01;;;;;;;;;;;;;;;23.01;50.18;99588.13;5089303;28;19912;-37
2023/05/27 06:43:26;;;;;;;;;;;;;;;22.45;51.00;99592.25;5088636;28;20427;-36
2023/05/27 06:45:52;;;;;;;;;;;;;;;22.50;51.24;99591.41;5088545;28;19912;-36
2023/05/27 06:48:17;;;;;;;;;;;;;;;22.51;51.55;99595.75;5088944;28;20003;-36
2023/05/27 06:50:42;;;;;;;;;;;;;;;22.54;51.49;99592.47;5088731;28;20541;-37
2023/05/27 06:53:08;;;;;;;;;;;;;;;22.25;52.69;99601.38;5090161;28;19957;-41
2023/05/27 06:55:33;;;;;;;;;;;;;;;22.97;51.17;99597.16;5089660;28;19928;-41
2023/05/27 06:57:58;;;;;;;;;;;;;;;22.90;51.60;99597.47;5089232;28;19912;-42
2023/05/27 07:00:24;;;;;;;;;;;;;;;23.34;52.00;99598.34;5089950;28;20415;-41
2023/05/27 07:02:49;;;;;;;;;;;;;;;23.42;50.94;99593.06;5090273;28;19916;-41
2023/05/27 07:05:14;;;;;;;;;;;;;;;23.81;51.80;99602.06;5090271;28;20340;-41
2023/05/27 07:07:40;;;;;;;;;;;;;;;24.28;53.26;99597.50;5090223;28;19980;-41
2023/05/27 07:10:05;;;;;;;;;;;;;;;24.05;50.07;99604.69;5090079;28;19958;-41
2023/05/27 07:12:30;;;;;;;;;;;;;;;23.70;52.27;99604.09;5090007;28;19912;-41
2023/05/27 07:14:56;;;;;;;;;;;;;;;24.27;51.22;99601.31;5089919;28;19958;-41
2023/05/27 07:17:21;;;;;;;;;;;;;;;24.58;49.37;99601.63;5089917;28;19912;-41
2023/05/27 07:19:46;;;;;;;;;;;;;;;24.24;50.24;99598.38;5090080;28;19912;-41
2023/05/27 07:22:12;;;;;;;;;;;;;;;24.25;50.76;99606.25;5089942;28;20484;-40
2023/05/27 07:24:37;;;;;;;;;;;;;;;23.91;50.58;99607.34;5093510;28;19919;-41
2023/05/27 07:27:02;;;;;;;;;;;;;;;24.08;50.34;99614.94;5094006;28;19913;-41
2023/05/27 07:29:28;;;;;;;;;;;;;;;24.09;50.27;99616.56;5093435;28;19920;-41
2023/05/27 07:31:53;;;;;;;;;;;;;;;24.35;49.64;99616.13;5093671;28;20392;-41
2023/05/27 07:34:20;;;;;;;;;;;;;;;24.64;51.38;99615.16;5093682;28;20417;-41
2023/05/27 07:36:45;;;;;;;;;;;;;;;24.86;48.96;99614.44;5093631;28;19951;-41
2023/05/27 07:39:11;;;;;;;;;;;;;;;24.95;49.47;99610.72;5093340;28;19943;-41
2023/05/27 07:41:36;;;;;;;;;;;;;;;25.11;49.93;99604.97;5093007;28;19912;-40
2023/05/27 07:44:01;;;;;;;;;;;;;;;25.09;52.43;99608.00;5093479;28;19912;-42
2023/05/27 07:46:27;;;;;;;;;;;;;;;25.10;53.23;99606.88;5093440;28;19912;-40
2023/05/27 07:48:52;;;;;;;;;;;;;;;25.42;52.12;99602.44;5093327;28;19912;-40
2023/05/27 07:51:17;;;;;;;;;;;;;;;25.60;51.51;99603.41;5093216;28;19923;-41
2023/05/27 07:53:43;;;;;;;;;;;;;;;25.84;51.56;99605.84;5092927;28;20407;-42
2023/05/27 07:56:08;;;;;;;;;;;;;;;26.33;49.34;99608.78;5093313;28;19912;-40
2023/05/27 07:58:33;;;;;;;;;;;;;;;26.38;47.72;99610.56;5093241;28;20371;-42
2023/05/27 08:00:58;;;;;;;;;;;;;;;26.26;47.46;99605.69;5093140;28;20018;-41
2023/05/27 08:03:24;;;;;;;;;;;;;;;25.24;49.60;99609.63;5093735;28;19964;-41
2023/05/27 08:05:49;;;;;;;;;;;;;;;25.57;48.74;99609.47;5092820;28;20240;-42
2023/05/27 08:08:15;;;;;;;;;;;;;;;25.65;48.68;99610.66;5092724;28;19912;-41
2023/05/27 08:10:40;;;;;;;;;;;;;;;25.77;48.59;99613.66;5092029;28;20077;-40
2023/05/27 08:13:05;;;;;;;;;;;;;;;25.87;48.73;99607.16;5093207;28;19912;-41
2023/05/27 08:15:31;;;;;;;;;;;;;;;25.88;48.09;99615.03;5092475;28;20010;-41
2023/05/27 08:17:57;;;;;;;;;;;;;;;26.04;47.30;99622.84;5092804;28;19912;-42
2023/05/27 08:20:22;;;;;;;;;;;;;;;25.52;48.61;99623.19;5092691;28;19912;-41
2023/05/27 08:22:47;;;;;;;;;;;;;;;24.96;50.95;99630.59;5091759;28;20006;-41
2023/05/27 08:25:12;;;;;;;;;;;;;;;25.05;50.87;99630.69;5091921;28;19912;-41
2023/05/27 08:27:58;;;;;;;;;;;;;;;24.84;51.57;99624.81;5092060;28;19912;-39
2023/05/27 08:30:23;;;;;;;;;;;;;;;24.77;51.87;99634.19;5091124;28;19932;-41
2023/05/27 08:32:49;;;;;;;;;;;;;;;24.80;52.15;99634.69;5092900;28;19912;-40
2023/05/27 08:35:14;;;;;;;;;;;;;;;24.75;52.24;99627.44;5091725;28;20315;-41
2023/05/27 08:37:40;;;;;;;;;;;;;;;24.91;51.44;99627.97;5091594;28;20027;-39
2023/05/27 08:40:07;;;;;;;;;;;;;;;25.12;51.96;99634.59;5092313;28;20295;-41
2023/05/27 08:42:33;;;;;;;;;;;;;;;25.28;50.93;99628.88;5091976;28;20303;-41
2023/05/27 08:44:58;;;;;;;;;;;;;;;25.16;51.05;99635.59;5092040;28;20023;-41
2023/05/27 08:47:24;;;;;;;;;;;;;;;25.25;50.44;99626.78;5091980;28;19959;-41
2023/05/27 08:49:49;;;;;;;;;;;;;;;25.34;50.40;99625.75;5092236;28;20015;-41
2023/05/27 08:52:18;;;;;;;;;;;;;;;25.46;50.33;99629.88;5092282;28;19916;-40
2023/05/27 08:54:43;;;;;;;;;;;;;;;25.65;49.19;99627.00;5089920;28;20296;-42
2023/05/27 08:57:11;;;;;;;;;;;;;;;25.61;48.71;99623.25;5091269;28;19923;-41
2023/05/27 08:59:37;;;;;;;;;;;;;;;25.65;48.89;99625.09;5083237;28;19923;-41
2023/05/27 09:02:08;;;;;;;;;;;;;;;25.37;49.56;99629.78;5088286;28;20288;-42
2023/05/27 09:04:34;;;;;;;;;;;;;;;25.58;48.70;99621.97;5089742;28;19999;-41
2023/05/27 09:06:59;;;;;;;;;;;;;;;25.68;47.41;99629.09;5091796;28;20360;-41
2023/05/27 09:09:25;;;;;;;;;;;;;;;25.91;48.68;99628.06;5091685;28;19912;-42
2023/05/27 09:11:50;;;;;;;;;;;;;;;26.19;47.92;99627.94;5091771;28;20425;-41
2023/05/27 09:14:21;;;;;;;;;;;;;;;26.39;46.55;99625.81;5091576;28;19916;-42
2023/05/27 09:16:46;;;;;;;;;;;;;;;26.41;46.98;99618.94;5091744;28;20395;-45
2023/05/27 09:19:16;;;;;;;;;;;;;;;26.64;47.18;99621.66;5091614;28;19912;-43
2023/05/27 09:21:41;;;;;;;;;;;;;;;26.76;46.67;99621.06;5091661;28;20268;-40
2023/05/27 09:24:08;;;;;;;;;;;;;;;26.78;46.32;99625.09;5091574;28;19912;-41
2023/05/27 09:26:34;;;;;;;;;;;;;;;26.70;44.40;99618.47;5091537;28;20573;-42
2023/05/27 09:29:03;;;;;;;;;;;;;;;26.77;44.49;99612.56;5090341;28;19920;-41
2023/05/27 09:31:28;;;;;;;;;;;;;;;26.86;44.86;99613.38;5091323;28;19941;-40
2023/05/27 09:33:53;;;;;;;;;;;;;;;26.90;44.72;99614.41;5090879;28;20015;-42
2023/05/27 09:36:25;;;;;;;;;;;;;;;26.48;44.47;99611.13;5091217;28;19919;-41
2023/05/27 09:38:50;;;;;;;;;;;;;;;26.56;44.82;99615.03;5090740;28;19943;-41
2023/05/27 09:41:22;;;;;;;;;;;;;;;26.69;44.70;99610.59;5091334;28;19954;-43
2023/05/27 09:43:53;;;;;;;;;;;;;;;26.78;44.25;99614.16;5088440;28;19916;-41
2023/05/27 09:46:18;;;;;;;;;;;;;;;26.85;44.22;99600.09;5090525;28;20022;-42
2023/05/27 09:48:44;;;;;;;;;;;;;;;26.85;44.01;99609.06;5093348;28;19982;-42
2023/05/27 09:51:10;;;;;;;;;;;;;;;26.64;44.45;99603.38;5091252;28;19947;-42
2023/05/27 09:53:36;;;;;;;;;;;;;;;26.48;44.11;99610.31;5090482;28;19919;-42
2023/05/27 09:56:02;;;;;;;;;;;;;;;26.60;43.96;99596.09;5090712;28;19912;-41
2023/05/27 09:58:27;;;;;;;;;;;;;;;26.66;44.50;99600.31;5090616;28;19912;-40
2023/05/27 10:00:55;;;;;;;;;;;;;;;26.71;44.32;99594.72;5090158;28;19977;-41
2023/05/27 10:03:21;;;;;;;;;;;;;;;26.83;44.53;99599.59;5090484;28;20020;-41
2023/05/27 10:05:48;;;;;;;;;;;;;;;26.90;44.48;99605.38;5090313;28;20286;-41
2023/05/27 10:08:13;;;;;;;;;;;;;;;27.00;44.42;99598.84;5087852;28;19945;-41
2023/05/27 10:10:39;;;;;;;;;;;;;;;27.08;44.02;99600.78;5087344;28;19985;-42
2023/05/27 10:13:05;;;;;;;;;;;;;;;26.89;44.06;99588.19;5087973;28;19944;-42
2023/05/27 10:15:31;;;;;;;;;;;;;;;26.85;44.35;99592.69;5084295;28;20399;-41
2023/05/27 10:17:58;;;;;;;;;;;;;;;26.81;47.46;99599.91;5090725;28;19927;-41
2023/05/27 10:20:26;;;;;;;;;;;;;;;26.55;45.38;99588.84;5090646;28;19912;-40
2023/05/27 10:22:52;;;;;;;;;;;;;;;26.27;46.05;99590.94;5091264;28;19977;-40
2023/05/27 10:25:17;;;;;;;;;;;;;;;26.60;45.90;99590.66;5090930;28;20429;-41
2023/05/27 10:27:44;;;;;;;;;;;;;;;26.74;45.66;99585.91;5090142;28;19924;-41
2023/05/27 10:30:09;;;;;;;;;;;;;;;27.10;44.82;99582.16;5089685;28;19924;-42
2023/05/27 10:32:42;;;;;;;;;;;;;;;27.28;44.65;99585.75;5088885;28;20265;-41
2023/05/27 10:35:07;;;;;;;;;;;;;;;27.28;44.38;99581.13;5086696;28;19939;-42
2023/05/27 10:37:34;;;;;;;;;;;;;;;27.33;43.92;99580.16;5074565;28;20344;-41
2023/05/27 10:39:59;;;;;;;;;;;;;;;27.70;43.12;99580.63;5070747;28;19912;-41
2023/05/27 10:42:25;;;;;;;;;;;;;;;27.90;41.95;99579.22;5088973;28;20289;-42
2023/05/27 10:45:04;;;;;;;;;;;;;;;28.30;41.33;99580.94;5090200;28;20352;-42
2023/05/27 10:47:29;;;;;;;;;;;;;;;28.22;38.82;99572.41;5088747;28;20482;-41
2023/05/27 10:49:56;;;;;;;;;;;;;;;28.53;38.19;99571.38;5089618;28;20417;-40
2023/05/27 10:52:25;;;;;;;;;;;;;;;28.51;38.13;99567.34;5090325;28;20303;-42
2023/05/27 10:54:52;;;;;;;;;;;;;;;28.78;37.34;99571.59;5090483;28;19923;-40
2023/05/27 10:57:17;;;;;;;;;;;;;;;29.28;37.27;99554.41;5091852;28;19924;-42
2023/05/27 10:59:50;;;;;;;;;;;;;;;29.05;38.31;99562.09;5093818;28;19977;-41
2023/05/27 11:02:16;;;;;;;;;;;;;;;28.68;38.82;99553.59;5093911;28;19999;-41
2023/05/27 11:04:42;;;;;;;;;;;;;;;28.67;38.04;99557.47;5093044;28;19969;-40
2023/05/27 11:07:07;;;;;;;;;;;;;;;28.44;38.23;99545.94;5092202;28;19916;-43
2023/05/27 11:09:52;;;;;;;;;;;;;;;28.85;37.87;99550.78;5092658;28;19916;-41
2023/05/27 11:12:18;;;;;;;;;;;;;;;29.72;36.84;99545.81;5091857;28;20360;-41
2023/05/27 11:14:47;;;;;;;;;;;;;;;30.14;36.50;99535.59;5092625;28;19924;-41
2023/05/27 11:17:13;;;;;;;;;;;;;;;29.61;35.66;99540.75;5090722;28;20371;-43
2023/05/27 11:19:39;;;;;;;;;;;;;;;30.41;33.57;99536.13;5093532;28;20003;-41
2023/05/27 11:22:05;;;;;;;;;;;;;;;30.19;33.53;99529.88;5093405;28;20368;-40
2023/05/27 11:24:30;;;;;;;;;;;;;;;30.34;33.53;99533.16;5093527;28;19916;-43
2023/05/27 11:26:57;;;;;;;;;;;;;;;29.78;34.19;99519.84;5097667;28;19951;-42
2023/05/27 11:29:22;;;;;;;;;;;;;;;29.75;34.21;99518.56;5098601;28;19976;-43
2023/05/27 11:31:48;;;;;;;;;;;;;;;30.83;33.64;99518.63;5100766;28;19920;-44
2023/05/27 11:34:18;;;;;;;;;;;;;;;31.07;33.10;99518.63;5093812;28;20312;-43
2023/05/27 11:36:45;;;;;;;;;;;;;;;30.50;33.50;99514.88;5094161;28;20371;-42
2023/05/27 11:39:16;;;;;;;;;;;;;;;31.36;31.97;99519.47;5093791;28;19920;-43
2023/05/27 11:41:53;;;;;;;;;;;;;;;31.61;31.63;99517.44;5093593;28;20279;-42
2023/05/27 11:44:20;;;;;;;;;;;;;;;32.26;31.04;99516.44;5093080;28;19912;-43
2023/05/27 11:46:46;;;;;;;;;;;;;;;32.68;30.70;99519.44;5091761;28;19912;-40
2023/05/27 11:49:13;;;;;;;;;;;;;;;32.71;29.89;99515.97;5092618;28;20371;-42
2023/05/27 11:51:43;;;;;;;;;;;;;;;32.68;30.00;99510.38;5092490;28;19919;-43
2023/05/27 11:54:22;;;;;;;;;;;;;;;32.54;30.40;99514.38;5091843;28;20014;-42
2023/05/27 11:56:48;;;;;;;;;;;;;;;32.22;29.03;99515.53;5091464;28;19935;-42
2023/05/27 11:59:13;;;;;;;;;;;;;;;32.17;29.91;99504.78;5091428;28;20316;-42
2023/05/27 12:01:39;;;;;;;;;;;;;;;32.55;28.68;99509.66;5091791;28;19943;-41
2023/05/27 12:04:04;;;;;;;;;;;;;;;32.49;29.75;99500.06;5091969;28;19916;-42
2023/05/27 12:06:31;;;;;;;;;;;;;;;32.71;29.06;99504.97;5092149;28;19916;-43
2023/05/27 12:08:56;;;;;;;;;;;;;;;32.98;28.94;99490.59;5091372;28;19995;-42
2023/05/27 12:11:22;;;;;;;;;;;;;;;33.55;28.44;99489.03;5092377;28;19950;-41
2023/05/27 12:13:47;;;;;;;;;;;;;;;32.49;29.92;99484.34;5092565;28;20358;-41
2023/05/27 12:16:12;;;;;;;;;;;;;;;31.50;31.21;99484.16;5092481;28;19919;-41
2023/05/27 12:18:38;;;;;;;;;;;;;;;32.14;30.68;99484.28;5090871;28;19920;-42
2023/05/27 12:21:04;;;;;;;;;;;;;;;32.62;29.67;99481.53;5092111;28;20274;-41
2023/05/27 12:23:29;;;;;;;;;;;;;;;33.30;28.64;99478.31;5092200;28;19912;-41
2023/05/27 12:25:54;;;;;;;;;;;;;;;33.44;28.58;99472.28;5092358;28;19915;-41
2023/05/27 12:28:20;;;;;;;;;;;;;;;32.94;28.26;99482.25;5092192;28;20276;-42
2023/05/27 12:30:46;;;;;;;;;;;;;;;32.74;28.61;99473.13;5091752;28;19920;-42
2023/05/27 12:33:11;;;;;;;;;;;;;;;32.88;28.35;99467.97;5091619;28;19931;-44
2023/05/27 12:35:36;;;;;;;;;;;;;;;32.29;28.71;99466.97;5092828;28;19932;-42
2023/05/27 12:38:03;;;;;;;;;;;;;;;32.19;29.00;99461.19;5090968;28;19913;-42
2023/05/27 12:40:28;;;;;;;;;;;;;;;31.87;29.41;99456.47;5092821;28;19912;-42
2023/05/27 12:42:54;;;;;;;;;;;;;;;31.66;29.88;99448.47;5092049;28;19999;-41